sensor_id;sensor_type;location;lat;lon;timestamp;P1;durP1;ratioP1;P2;durP2;ratioP2
19089;SDS011;9677;50.656;13.064;2023-07-13T00:01:08;9.07;;;8.20;;
19089;SDS011;9677;50.656;13.064;2023-07-13T00:03:38;9.93;;;8.20;;
19089;SDS011;9677;50.656;13.064;2023-07-13T00:06:07;8.90;;;8.07;;
19089;SDS011;9677;50.656;13.064;2023-07-13T00:08:37;9.30;;;8.40;;
19089;SDS011;9677;50.656;13.064;2023-07-13T00:11:05;9.00;;;8.20;;
19089;SDS011;9677;50.656;13.064;2023-07-13T00:13:33;9.10;;;8.23;;
19089;SDS011;9677;50.656;13.064;2023-07-13T00:16:04;9.83;;;8.33;;
19089;SDS011;9677;50.656;13.064;2023-07-13T00:18:35;8.93;;;8.13;;
19089;SDS011;9677;50.656;13.064;2023-07-13T00:21:04;9.00;;;8.20;;
19089;SDS011;9677;50.656;13.064;2023-07-13T00:23:32;9.20;;;8.30;;
19089;SDS011;9677;50.656;13.064;2023-07-13T00:26:01;9.23;;;8.27;;
19089;SDS011;9677;50.656;13.064;2023-07-13T00:28:30;9.00;;;8.20;;
19089;SDS011;9677;50.656;13.064;2023-07-13T00:30:59;9.30;;;8.23;;
19089;SDS011;9677;50.656;13.064;2023-07-13T00:33:28;9.93;;;8.37;;
19089;SDS011;9677;50.656;13.064;2023-07-13T00:35:58;8.90;;;8.10;;
19089;SDS011;9677;50.656;13.064;2023-07-13T00:38:26;9.20;;;8.30;;
19089;SDS011;9677;50.656;13.064;2023-07-13T00:40:54;9.20;;;8.30;;
19089;SDS011;9677;50.656;13.064;2023-07-13T00:43:23;9.10;;;8.27;;
19089;SDS011;9677;50.656;13.064;2023-07-13T00:48:49;9.20;;;8.30;;
19089;SDS011;9677;50.656;13.064;2023-07-13T00:51:22;9.00;;;8.20;;
19089;SDS011;9677;50.656;13.064;2023-07-13T00:54:17;8.80;;;8.00;;
19089;SDS011;9677;50.656;13.064;2023-07-13T00:56:50;9.20;;;8.40;;
19089;SDS011;9677;50.656;13.064;2023-07-13T00:59:19;8.90;;;8.10;;
19089;SDS011;9677;50.656;13.064;2023-07-13T01:01:50;8.90;;;8.10;;
19089;SDS011;9677;50.656;13.064;2023-07-13T01:04:18;8.90;;;8.10;;
19089;SDS011;9677;50.656;13.064;2023-07-13T01:06:48;9.13;;;8.33;;
19089;SDS011;9677;50.656;13.064;2023-07-13T01:09:16;9.00;;;8.20;;
19089;SDS011;9677;50.656;13.064;2023-07-13T01:11:45;9.17;;;8.37;;
19089;SDS011;9677;50.656;13.064;2023-07-13T01:14:14;9.30;;;8.40;;
19089;SDS011;9677;50.656;13.064;2023-07-13T01:16:43;8.90;;;8.10;;
19089;SDS011;9677;50.656;13.064;2023-07-13T01:19:18;9.20;;;8.30;;
19089;SDS011;9677;50.656;13.064;2023-07-13T01:22:05;9.00;;;8.20;;
19089;SDS011;9677;50.656;13.064;2023-07-13T01:24:39;9.00;;;8.20;;
19089;SDS011;9677;50.656;13.064;2023-07-13T01:27:10;8.97;;;8.17;;
19089;SDS011;9677;50.656;13.064;2023-07-13T01:29:40;8.73;;;7.93;;
19089;SDS011;9677;50.656;13.064;2023-07-13T01:32:13;9.80;;;8.30;;
19089;SDS011;9677;50.656;13.064;2023-07-13T01:34:49;8.80;;;8.00;;
19089;SDS011;9677;50.656;13.064;2023-07-13T01:37:22;9.03;;;8.20;;
19089;SDS011;9677;50.656;13.064;2023-07-13T01:39:52;9.20;;;8.30;;
19089;SDS011;9677;50.656;13.064;2023-07-13T01:42:20;9.00;;;8.20;;
19089;SDS011;9677;50.656;13.064;2023-07-13T01:44:48;8.90;;;8.10;;
19089;SDS011;9677;50.656;13.064;2023-07-13T01:47:17;8.80;;;8.00;;
19089;SDS011;9677;50.656;13.064;2023-07-13T01:49:45;9.00;;;8.20;;
19089;SDS011;9677;50.656;13.064;2023-07-13T01:52:13;8.97;;;8.17;;
19089;SDS011;9677;50.656;13.064;2023-07-13T01:54:43;8.90;;;8.10;;
19089;SDS011;9677;50.656;13.064;2023-07-13T01:57:11;9.17;;;8.37;;
19089;SDS011;9677;50.656;13.064;2023-07-13T01:59:39;9.03;;;8.13;;
19089;SDS011;9677;50.656;13.064;2023-07-13T02:02:07;8.80;;;8.00;;
19089;SDS011;9677;50.656;13.064;2023-07-13T02:04:35;8.97;;;8.17;;
19089;SDS011;9677;50.656;13.064;2023-07-13T02:07:04;9.30;;;8.40;;
19089;SDS011;9677;50.656;13.064;2023-07-13T02:09:32;9.00;;;8.20;;
19089;SDS011;9677;50.656;13.064;2023-07-13T02:12:02;9.10;;;8.20;;
19089;SDS011;9677;50.656;13.064;2023-07-13T02:14:32;9.00;;;8.20;;
19089;SDS011;9677;50.656;13.064;2023-07-13T02:17:01;8.97;;;8.17;;
19089;SDS011;9677;50.656;13.064;2023-07-13T02:19:30;9.07;;;8.27;;
19089;SDS011;9677;50.656;13.064;2023-07-13T02:21:58;8.90;;;8.10;;
19089;SDS011;9677;50.656;13.064;2023-07-13T02:24:26;8.90;;;8.10;;
19089;SDS011;9677;50.656;13.064;2023-07-13T02:26:54;9.10;;;8.30;;
19089;SDS011;9677;50.656;13.064;2023-07-13T02:29:23;9.30;;;8.40;;
19089;SDS011;9677;50.656;13.064;2023-07-13T02:31:51;8.90;;;8.10;;
19089;SDS011;9677;50.656;13.064;2023-07-13T02:34:20;9.10;;;8.20;;
19089;SDS011;9677;50.656;13.064;2023-07-13T02:36:48;9.00;;;8.20;;
19089;SDS011;9677;50.656;13.064;2023-07-13T02:39:16;9.07;;;8.27;;
19089;SDS011;9677;50.656;13.064;2023-07-13T02:41:45;8.97;;;8.17;;
19089;SDS011;9677;50.656;13.064;2023-07-13T02:44:13;9.00;;;8.20;;
19089;SDS011;9677;50.656;13.064;2023-07-13T02:46:43;9.00;;;8.20;;
19089;SDS011;9677;50.656;13.064;2023-07-13T02:49:12;9.07;;;8.27;;
19089;SDS011;9677;50.656;13.064;2023-07-13T02:51:41;9.17;;;8.37;;
19089;SDS011;9677;50.656;13.064;2023-07-13T02:54:09;9.00;;;8.20;;
19089;SDS011;9677;50.656;13.064;2023-07-13T02:56:40;9.20;;;8.30;;
19089;SDS011;9677;50.656;13.064;2023-07-13T02:59:09;9.00;;;8.20;;
19089;SDS011;9677;50.656;13.064;2023-07-13T03:01:38;8.97;;;8.17;;
19089;SDS011;9677;50.656;13.064;2023-07-13T03:04:08;8.90;;;8.10;;
19089;SDS011;9677;50.656;13.064;2023-07-13T03:06:37;9.20;;;8.33;;
19089;SDS011;9677;50.656;13.064;2023-07-13T03:09:05;9.00;;;8.20;;
19089;SDS011;9677;50.656;13.064;2023-07-13T03:11:36;8.70;;;7.90;;
19089;SDS011;9677;50.656;13.064;2023-07-13T03:14:22;9.00;;;8.20;;
19089;SDS011;9677;50.656;13.064;2023-07-13T03:16:50;9.00;;;8.20;;
19089;SDS011;9677;50.656;13.064;2023-07-13T03:19:23;9.10;;;8.30;;
19089;SDS011;9677;50.656;13.064;2023-07-13T03:21:52;9.10;;;8.30;;
19089;SDS011;9677;50.656;13.064;2023-07-13T03:24:20;9.30;;;8.40;;
19089;SDS011;9677;50.656;13.064;2023-07-13T03:26:50;9.23;;;8.33;;
19089;SDS011;9677;50.656;13.064;2023-07-13T03:29:19;9.10;;;8.30;;
19089;SDS011;9677;50.656;13.064;2023-07-13T03:31:47;9.03;;;8.23;;
19089;SDS011;9677;50.656;13.064;2023-07-13T03:34:15;8.83;;;8.03;;
19089;SDS011;9677;50.656;13.064;2023-07-13T03:36:45;9.47;;;8.40;;
19089;SDS011;9677;50.656;13.064;2023-07-13T03:39:13;9.27;;;8.37;;
19089;SDS011;9677;50.656;13.064;2023-07-13T03:41:51;9.00;;;8.20;;
19089;SDS011;9677;50.656;13.064;2023-07-13T03:44:21;9.37;;;8.47;;
19089;SDS011;9677;50.656;13.064;2023-07-13T03:46:53;9.00;;;8.20;;
19089;SDS011;9677;50.656;13.064;2023-07-13T03:49:22;9.30;;;8.40;;
19089;SDS011;9677;50.656;13.064;2023-07-13T03:51:51;9.10;;;8.30;;
19089;SDS011;9677;50.656;13.064;2023-07-13T03:54:20;9.27;;;8.43;;
19089;SDS011;9677;50.656;13.064;2023-07-13T03:56:48;9.30;;;8.50;;
19089;SDS011;9677;50.656;13.064;2023-07-13T03:59:17;9.27;;;8.43;;
19089;SDS011;9677;50.656;13.064;2023-07-13T04:01:45;9.20;;;8.30;;
19089;SDS011;9677;50.656;13.064;2023-07-13T04:04:13;9.60;;;8.60;;
19089;SDS011;9677;50.656;13.064;2023-07-13T04:06:42;9.03;;;8.23;;
19089;SDS011;9677;50.656;13.064;2023-07-13T04:09:12;9.00;;;8.20;;
19089;SDS011;9677;50.656;13.064;2023-07-13T04:11:41;9.20;;;8.30;;
19089;SDS011;9677;50.656;13.064;2023-07-13T04:14:09;9.13;;;8.33;;
19089;SDS011;9677;50.656;13.064;2023-07-13T04:16:37;8.90;;;8.10;;
19089;SDS011;9677;50.656;13.064;2023-07-13T04:19:05;9.10;;;8.20;;
19089;SDS011;9677;50.656;13.064;2023-07-13T04:21:33;9.03;;;8.23;;
19089;SDS011;9677;50.656;13.064;2023-07-13T04:24:02;9.50;;;8.50;;
19089;SDS011;9677;50.656;13.064;2023-07-13T04:26:32;9.00;;;8.20;;
19089;SDS011;9677;50.656;13.064;2023-07-13T04:29:02;9.20;;;8.40;;
19089;SDS011;9677;50.656;13.064;2023-07-13T04:31:30;9.07;;;8.27;;
19089;SDS011;9677;50.656;13.064;2023-07-13T04:33:58;9.10;;;8.20;;
19089;SDS011;9677;50.656;13.064;2023-07-13T04:36:27;9.03;;;8.20;;
19089;SDS011;9677;50.656;13.064;2023-07-13T04:38:55;9.10;;;8.30;;
19089;SDS011;9677;50.656;13.064;2023-07-13T04:41:23;9.43;;;8.53;;
19089;SDS011;9677;50.656;13.064;2023-07-13T04:43:52;9.50;;;8.50;;
19089;SDS011;9677;50.656;13.064;2023-07-13T04:46:22;9.50;;;8.60;;
19089;SDS011;9677;50.656;13.064;2023-07-13T04:48:50;9.30;;;8.40;;
19089;SDS011;9677;50.656;13.064;2023-07-13T04:51:20;9.10;;;8.30;;
19089;SDS011;9677;50.656;13.064;2023-07-13T04:53:48;9.10;;;8.30;;
19089;SDS011;9677;50.656;13.064;2023-07-13T04:56:21;9.40;;;8.50;;
19089;SDS011;9677;50.656;13.064;2023-07-13T04:58:50;9.30;;;8.50;;
19089;SDS011;9677;50.656;13.064;2023-07-13T05:01:19;8.97;;;8.17;;
19089;SDS011;9677;50.656;13.064;2023-07-13T05:03:47;9.20;;;8.30;;
19089;SDS011;9677;50.656;13.064;2023-07-13T05:06:16;9.20;;;8.40;;
19089;SDS011;9677;50.656;13.064;2023-07-13T05:08:44;9.20;;;8.40;;
19089;SDS011;9677;50.656;13.064;2023-07-13T05:11:12;9.33;;;8.43;;
19089;SDS011;9677;50.656;13.064;2023-07-13T05:13:40;9.13;;;8.23;;
19089;SDS011;9677;50.656;13.064;2023-07-13T05:16:08;9.60;;;8.70;;
19089;SDS011;9677;50.656;13.064;2023-07-13T05:18:37;8.97;;;8.17;;
19089;SDS011;9677;50.656;13.064;2023-07-13T05:21:09;9.20;;;8.40;;
19089;SDS011;9677;50.656;13.064;2023-07-13T05:23:38;9.00;;;8.20;;
19089;SDS011;9677;50.656;13.064;2023-07-13T05:26:08;9.30;;;8.40;;
19089;SDS011;9677;50.656;13.064;2023-07-13T05:28:36;9.30;;;8.40;;
19089;SDS011;9677;50.656;13.064;2023-07-13T05:31:06;8.90;;;8.10;;
19089;SDS011;9677;50.656;13.064;2023-07-13T05:33:35;9.10;;;8.30;;
19089;SDS011;9677;50.656;13.064;2023-07-13T05:36:05;9.07;;;8.27;;
19089;SDS011;9677;50.656;13.064;2023-07-13T05:38:33;9.20;;;8.40;;
19089;SDS011;9677;50.656;13.064;2023-07-13T05:41:01;9.40;;;8.50;;
19089;SDS011;9677;50.656;13.064;2023-07-13T05:43:32;9.40;;;8.50;;
19089;SDS011;9677;50.656;13.064;2023-07-13T05:46:01;9.17;;;8.30;;
19089;SDS011;9677;50.656;13.064;2023-07-13T05:48:30;9.20;;;8.40;;
19089;SDS011;9677;50.656;13.064;2023-07-13T05:50:59;9.20;;;8.30;;
19089;SDS011;9677;50.656;13.064;2023-07-13T05:53:28;9.40;;;8.50;;
19089;SDS011;9677;50.656;13.064;2023-07-13T05:55:57;9.37;;;8.50;;
19089;SDS011;9677;50.656;13.064;2023-07-13T05:58:28;9.50;;;8.60;;
19089;SDS011;9677;50.656;13.064;2023-07-13T06:01:00;9.10;;;8.30;;
19089;SDS011;9677;50.656;13.064;2023-07-13T06:03:31;9.43;;;8.53;;
19089;SDS011;9677;50.656;13.064;2023-07-13T06:06:00;9.27;;;8.37;;
19089;SDS011;9677;50.656;13.064;2023-07-13T06:08:29;9.20;;;8.40;;
19089;SDS011;9677;50.656;13.064;2023-07-13T06:11:04;9.23;;;8.33;;
19089;SDS011;9677;50.656;13.064;2023-07-13T06:13:34;9.43;;;8.43;;
19089;SDS011;9677;50.656;13.064;2023-07-13T06:16:02;9.10;;;8.30;;
19089;SDS011;9677;50.656;13.064;2023-07-13T06:18:31;9.40;;;8.50;;
19089;SDS011;9677;50.656;13.064;2023-07-13T06:21:04;9.40;;;8.50;;
19089;SDS011;9677;50.656;13.064;2023-07-13T06:23:35;9.10;;;8.30;;
19089;SDS011;9677;50.656;13.064;2023-07-13T06:26:04;9.43;;;8.53;;
19089;SDS011;9677;50.656;13.064;2023-07-13T06:28:32;9.10;;;8.30;;
19089;SDS011;9677;50.656;13.064;2023-07-13T06:31:02;9.77;;;8.40;;
19089;SDS011;9677;50.656;13.064;2023-07-13T06:33:33;9.60;;;8.70;;
19089;SDS011;9677;50.656;13.064;2023-07-13T06:36:03;9.30;;;8.40;;
19089;SDS011;9677;50.656;13.064;2023-07-13T06:38:34;9.00;;;8.20;;
19089;SDS011;9677;50.656;13.064;2023-07-13T06:41:04;8.93;;;8.13;;
19089;SDS011;9677;50.656;13.064;2023-07-13T06:43:33;9.03;;;8.20;;
19089;SDS011;9677;50.656;13.064;2023-07-13T06:46:01;9.20;;;8.30;;
19089;SDS011;9677;50.656;13.064;2023-07-13T06:48:29;9.53;;;8.63;;
19089;SDS011;9677;50.656;13.064;2023-07-13T06:50:57;9.33;;;8.30;;
19089;SDS011;9677;50.656;13.064;2023-07-13T06:53:27;9.30;;;8.40;;
19089;SDS011;9677;50.656;13.064;2023-07-13T06:55:55;9.10;;;8.20;;
19089;SDS011;9677;50.656;13.064;2023-07-13T06:58:23;9.33;;;8.43;;
19089;SDS011;9677;50.656;13.064;2023-07-13T07:00:51;9.17;;;8.37;;
19089;SDS011;9677;50.656;13.064;2023-07-13T07:03:20;9.00;;;8.20;;
19089;SDS011;9677;50.656;13.064;2023-07-13T07:05:48;9.07;;;8.27;;
19089;SDS011;9677;50.656;13.064;2023-07-13T07:08:16;9.50;;;8.30;;
19089;SDS011;9677;50.656;13.064;2023-07-13T07:10:45;9.13;;;8.27;;
19089;SDS011;9677;50.656;13.064;2023-07-13T07:13:17;9.70;;;8.40;;
19089;SDS011;9677;50.656;13.064;2023-07-13T07:15:45;9.10;;;8.30;;
19089;SDS011;9677;50.656;13.064;2023-07-13T07:18:13;9.10;;;8.30;;
19089;SDS011;9677;50.656;13.064;2023-07-13T07:20:42;9.30;;;8.50;;
19089;SDS011;9677;50.656;13.064;2023-07-13T07:23:10;9.40;;;8.40;;
19089;SDS011;9677;50.656;13.064;2023-07-13T07:25:38;8.80;;;8.00;;
19089;SDS011;9677;50.656;13.064;2023-07-13T07:28:09;9.20;;;8.40;;
19089;SDS011;9677;50.656;13.064;2023-07-13T07:30:41;8.90;;;8.10;;
19089;SDS011;9677;50.656;13.064;2023-07-13T07:33:12;9.00;;;8.20;;
19089;SDS011;9677;50.656;13.064;2023-07-13T07:35:41;9.63;;;8.43;;
19089;SDS011;9677;50.656;13.064;2023-07-13T07:38:30;9.00;;;8.20;;
19089;SDS011;9677;50.656;13.064;2023-07-13T07:40:58;9.17;;;8.30;;
19089;SDS011;9677;50.656;13.064;2023-07-13T07:43:34;9.10;;;8.30;;
19089;SDS011;9677;50.656;13.064;2023-07-13T07:46:02;8.70;;;7.90;;
19089;SDS011;9677;50.656;13.064;2023-07-13T07:48:31;8.93;;;8.13;;
19089;SDS011;9677;50.656;13.064;2023-07-13T07:50:59;9.10;;;8.30;;
19089;SDS011;9677;50.656;13.064;2023-07-13T07:53:27;9.20;;;8.30;;
19089;SDS011;9677;50.656;13.064;2023-07-13T07:55:59;9.73;;;8.47;;
19089;SDS011;9677;50.656;13.064;2023-07-13T07:58:49;9.17;;;8.30;;
19089;SDS011;9677;50.656;13.064;2023-07-13T08:01:20;9.33;;;8.43;;
19089;SDS011;9677;50.656;13.064;2023-07-13T08:03:51;9.13;;;8.23;;
19089;SDS011;9677;50.656;13.064;2023-07-13T08:06:22;8.57;;;7.77;;
19089;SDS011;9677;50.656;13.064;2023-07-13T08:08:54;8.70;;;7.90;;
19089;SDS011;9677;50.656;13.064;2023-07-13T08:11:22;8.83;;;7.97;;
19089;SDS011;9677;50.656;13.064;2023-07-13T08:13:55;8.53;;;7.77;;
19089;SDS011;9677;50.656;13.064;2023-07-13T08:16:23;8.47;;;7.67;;
19089;SDS011;9677;50.656;13.064;2023-07-13T08:18:52;8.70;;;7.90;;
19089;SDS011;9677;50.656;13.064;2023-07-13T08:21:21;8.60;;;7.80;;
19089;SDS011;9677;50.656;13.064;2023-07-13T08:23:49;9.03;;;8.13;;
19089;SDS011;9677;50.656;13.064;2023-07-13T08:26:17;9.03;;;8.10;;
19089;SDS011;9677;50.656;13.064;2023-07-13T08:28:45;8.90;;;8.10;;
19089;SDS011;9677;50.656;13.064;2023-07-13T08:31:15;8.73;;;7.93;;
19089;SDS011;9677;50.656;13.064;2023-07-13T08:33:43;8.90;;;8.03;;
19089;SDS011;9677;50.656;13.064;2023-07-13T08:36:11;8.80;;;8.00;;
19089;SDS011;9677;50.656;13.064;2023-07-13T08:38:39;8.70;;;7.80;;
19089;SDS011;9677;50.656;13.064;2023-07-13T08:41:11;8.90;;;8.10;;
19089;SDS011;9677;50.656;13.064;2023-07-13T08:43:42;8.67;;;7.77;;
19089;SDS011;9677;50.656;13.064;2023-07-13T08:46:16;8.60;;;7.80;;
19089;SDS011;9677;50.656;13.064;2023-07-13T08:48:52;8.90;;;8.10;;
19089;SDS011;9677;50.656;13.064;2023-07-13T08:51:25;8.70;;;7.90;;
19089;SDS011;9677;50.656;13.064;2023-07-13T08:54:01;8.70;;;7.90;;
19089;SDS011;9677;50.656;13.064;2023-07-13T08:56:32;9.00;;;8.10;;
19089;SDS011;9677;50.656;13.064;2023-07-13T08:59:02;9.03;;;8.20;;
19089;SDS011;9677;50.656;13.064;2023-07-13T09:01:43;8.80;;;7.90;;
19089;SDS011;9677;50.656;13.064;2023-07-13T09:04:25;8.73;;;7.83;;
19089;SDS011;9677;50.656;13.064;2023-07-13T09:06:59;8.80;;;8.00;;
19089;SDS011;9677;50.656;13.064;2023-07-13T09:09:37;8.30;;;7.60;;
19089;SDS011;9677;50.656;13.064;2023-07-13T09:12:17;8.60;;;7.90;;
19089;SDS011;9677;50.656;13.064;2023-07-13T09:14:53;8.70;;;7.90;;
19089;SDS011;9677;50.656;13.064;2023-07-13T09:17:25;8.63;;;7.87;;
19089;SDS011;9677;50.656;13.064;2023-07-13T09:20:00;8.87;;;8.00;;
19089;SDS011;9677;50.656;13.064;2023-07-13T09:22:37;8.40;;;7.70;;
19089;SDS011;9677;50.656;13.064;2023-07-13T09:25:12;8.43;;;7.63;;
19089;SDS011;9677;50.656;13.064;2023-07-13T09:27:52;8.60;;;7.80;;
19089;SDS011;9677;50.656;13.064;2023-07-13T09:30:25;8.80;;;8.00;;
19089;SDS011;9677;50.656;13.064;2023-07-13T09:33:02;8.73;;;7.83;;
19089;SDS011;9677;50.656;13.064;2023-07-13T09:35:30;8.63;;;7.83;;
19089;SDS011;9677;50.656;13.064;2023-07-13T09:38:01;8.63;;;7.83;;
19089;SDS011;9677;50.656;13.064;2023-07-13T09:44:00;8.47;;;7.67;;
19089;SDS011;9677;50.656;13.064;2023-07-13T09:46:36;8.30;;;7.60;;
19089;SDS011;9677;50.656;13.064;2023-07-13T09:49:07;9.27;;;8.10;;
19089;SDS011;9677;50.656;13.064;2023-07-13T09:51:38;8.60;;;7.80;;
19089;SDS011;9677;50.656;13.064;2023-07-13T09:54:17;9.07;;;8.17;;
19089;SDS011;9677;50.656;13.064;2023-07-13T09:56:47;8.80;;;8.00;;
19089;SDS011;9677;50.656;13.064;2023-07-13T09:59:22;8.50;;;7.80;;
19089;SDS011;9677;50.656;13.064;2023-07-13T10:01:56;8.90;;;8.00;;
19089;SDS011;9677;50.656;13.064;2023-07-13T10:04:28;8.83;;;7.93;;
19089;SDS011;9677;50.656;13.064;2023-07-13T10:07:06;8.80;;;7.90;;
19089;SDS011;9677;50.656;13.064;2023-07-13T10:09:54;8.60;;;7.80;;
19089;SDS011;9677;50.656;13.064;2023-07-13T10:12:24;9.10;;;8.20;;
19089;SDS011;9677;50.656;13.064;2023-07-13T10:14:54;8.90;;;8.10;;
19089;SDS011;9677;50.656;13.064;2023-07-13T10:17:42;9.70;;;8.00;;
19089;SDS011;9677;50.656;13.064;2023-07-13T10:20:13;8.90;;;8.10;;
19089;SDS011;9677;50.656;13.064;2023-07-13T10:22:44;8.73;;;7.93;;
19089;SDS011;9677;50.656;13.064;2023-07-13T10:25:19;8.60;;;7.87;;
19089;SDS011;9677;50.656;13.064;2023-07-13T10:27:50;8.70;;;7.90;;
19089;SDS011;9677;50.656;13.064;2023-07-13T10:30:21;8.53;;;7.73;;
19089;SDS011;9677;50.656;13.064;2023-07-13T10:32:57;9.03;;;8.10;;
19089;SDS011;9677;50.656;13.064;2023-07-13T10:35:29;8.77;;;7.97;;
19089;SDS011;9677;50.656;13.064;2023-07-13T10:38:00;8.60;;;7.80;;
19089;SDS011;9677;50.656;13.064;2023-07-13T10:40:33;8.60;;;7.90;;
19089;SDS011;9677;50.656;13.064;2023-07-13T10:43:06;8.57;;;7.77;;
19089;SDS011;9677;50.656;13.064;2023-07-13T10:45:41;8.70;;;7.80;;
19089;SDS011;9677;50.656;13.064;2023-07-13T10:48:11;8.50;;;7.70;;
19089;SDS011;9677;50.656;13.064;2023-07-13T10:50:44;9.30;;;8.40;;
19089;SDS011;9677;50.656;13.064;2023-07-13T10:53:17;8.87;;;8.07;;
19089;SDS011;9677;50.656;13.064;2023-07-13T10:56:00;8.87;;;8.07;;
19089;SDS011;9677;50.656;13.064;2023-07-13T10:58:32;8.70;;;7.90;;
19089;SDS011;9677;50.656;13.064;2023-07-13T11:01:04;8.50;;;7.80;;
19089;SDS011;9677;50.656;13.064;2023-07-13T11:03:37;8.67;;;7.77;;
19089;SDS011;9677;50.656;13.064;2023-07-13T11:06:33;8.40;;;7.60;;
19089;SDS011;9677;50.656;13.064;2023-07-13T11:12:07;8.43;;;7.73;;
19089;SDS011;9677;50.656;13.064;2023-07-13T11:15:01;8.43;;;7.63;;
19089;SDS011;9677;50.656;13.064;2023-07-13T11:17:35;8.40;;;7.70;;
19089;SDS011;9677;50.656;13.064;2023-07-13T11:20:20;8.50;;;7.70;;
19089;SDS011;9677;50.656;13.064;2023-07-13T11:25:58;8.83;;;8.03;;
19089;SDS011;9677;50.656;13.064;2023-07-13T11:28:29;8.40;;;7.60;;
19089;SDS011;9677;50.656;13.064;2023-07-13T11:31:04;9.00;;;8.10;;
19089;SDS011;9677;50.656;13.064;2023-07-13T11:33:50;10.10;;;8.40;;
19089;SDS011;9677;50.656;13.064;2023-07-13T11:36:27;10.97;;;8.80;;
19089;SDS011;9677;50.656;13.064;2023-07-13T11:39:15;8.60;;;7.80;;
19089;SDS011;9677;50.656;13.064;2023-07-13T11:41:50;8.80;;;8.00;;
19089;SDS011;9677;50.656;13.064;2023-07-13T11:44:22;8.50;;;7.70;;
19089;SDS011;9677;50.656;13.064;2023-07-13T11:46:53;9.17;;;8.27;;
19089;SDS011;9677;50.656;13.064;2023-07-13T11:49:23;9.00;;;8.10;;
19089;SDS011;9677;50.656;13.064;2023-07-13T11:51:54;9.03;;;8.10;;
19089;SDS011;9677;50.656;13.064;2023-07-13T11:54:26;8.47;;;7.60;;
19089;SDS011;9677;50.656;13.064;2023-07-13T11:56:58;8.90;;;8.00;;
19089;SDS011;9677;50.656;13.064;2023-07-13T11:59:32;9.23;;;8.33;;
19089;SDS011;9677;50.656;13.064;2023-07-13T12:02:08;8.60;;;7.80;;
19089;SDS011;9677;50.656;13.064;2023-07-13T12:04:43;8.33;;;7.60;;
19089;SDS011;9677;50.656;13.064;2023-07-13T12:07:14;8.33;;;7.63;;
19089;SDS011;9677;50.656;13.064;2023-07-13T12:09:45;8.40;;;7.70;;
19089;SDS011;9677;50.656;13.064;2023-07-13T12:12:13;8.53;;;7.73;;
19089;SDS011;9677;50.656;13.064;2023-07-13T12:14:45;8.70;;;7.90;;
19089;SDS011;9677;50.656;13.064;2023-07-13T12:17:15;8.70;;;7.90;;
19089;SDS011;9677;50.656;13.064;2023-07-13T12:19:47;8.50;;;7.80;;
19089;SDS011;9677;50.656;13.064;2023-07-13T12:22:17;8.80;;;8.00;;
19089;SDS011;9677;50.656;13.064;2023-07-13T12:24:48;8.40;;;7.70;;
19089;SDS011;9677;50.656;13.064;2023-07-13T12:27:19;9.00;;;8.20;;
19089;SDS011;9677;50.656;13.064;2023-07-13T12:29:50;9.00;;;8.10;;
19089;SDS011;9677;50.656;13.064;2023-07-13T12:32:21;8.37;;;7.63;;
19089;SDS011;9677;50.656;13.064;2023-07-13T12:34:52;8.63;;;7.83;;
19089;SDS011;9677;50.656;13.064;2023-07-13T12:37:23;8.80;;;8.00;;
19089;SDS011;9677;50.656;13.064;2023-07-13T12:39:53;8.40;;;7.60;;
19089;SDS011;9677;50.656;13.064;2023-07-13T12:42:22;8.60;;;7.80;;
19089;SDS011;9677;50.656;13.064;2023-07-13T12:44:56;8.60;;;7.80;;
19089;SDS011;9677;50.656;13.064;2023-07-13T12:47:28;8.50;;;7.80;;
19089;SDS011;9677;50.656;13.064;2023-07-13T12:49:58;8.70;;;7.90;;
19089;SDS011;9677;50.656;13.064;2023-07-13T12:52:28;8.73;;;7.93;;
19089;SDS011;9677;50.656;13.064;2023-07-13T12:55:05;8.83;;;8.03;;
19089;SDS011;9677;50.656;13.064;2023-07-13T12:57:41;8.90;;;8.03;;
19089;SDS011;9677;50.656;13.064;2023-07-13T13:00:24;8.90;;;8.00;;
19089;SDS011;9677;50.656;13.064;2023-07-13T13:03:02;8.43;;;7.73;;
19089;SDS011;9677;50.656;13.064;2023-07-13T13:05:59;8.80;;;8.00;;
19089;SDS011;9677;50.656;13.064;2023-07-13T13:08:29;8.40;;;7.70;;
19089;SDS011;9677;50.656;13.064;2023-07-13T13:11:00;8.80;;;7.90;;
19089;SDS011;9677;50.656;13.064;2023-07-13T13:13:29;8.80;;;8.00;;
19089;SDS011;9677;50.656;13.064;2023-07-13T13:16:01;9.03;;;8.13;;
19089;SDS011;9677;50.656;13.064;2023-07-13T13:18:32;8.60;;;7.83;;
19089;SDS011;9677;50.656;13.064;2023-07-13T13:21:02;8.70;;;7.90;;
19089;SDS011;9677;50.656;13.064;2023-07-13T13:23:30;9.27;;;8.37;;
19089;SDS011;9677;50.656;13.064;2023-07-13T13:26:00;8.70;;;7.90;;
19089;SDS011;9677;50.656;13.064;2023-07-13T13:28:31;8.80;;;8.00;;
19089;SDS011;9677;50.656;13.064;2023-07-13T13:30:59;9.30;;;8.17;;
19089;SDS011;9677;50.656;13.064;2023-07-13T13:33:28;9.00;;;8.10;;
19089;SDS011;9677;50.656;13.064;2023-07-13T13:35:56;8.40;;;7.70;;
19089;SDS011;9677;50.656;13.064;2023-07-13T13:38:25;8.80;;;8.00;;
19089;SDS011;9677;50.656;13.064;2023-07-13T13:40:55;8.70;;;7.90;;
19089;SDS011;9677;50.656;13.064;2023-07-13T13:43:25;8.60;;;7.90;;
19089;SDS011;9677;50.656;13.064;2023-07-13T13:45:55;8.67;;;7.87;;
19089;SDS011;9677;50.656;13.064;2023-07-13T13:48:27;8.50;;;7.80;;
19089;SDS011;9677;50.656;13.064;2023-07-13T13:50:59;9.27;;;8.33;;
19089;SDS011;9677;50.656;13.064;2023-07-13T13:53:28;8.37;;;7.67;;
19089;SDS011;9677;50.656;13.064;2023-07-13T13:55:57;8.90;;;8.00;;
19089;SDS011;9677;50.656;13.064;2023-07-13T13:58:27;8.70;;;7.90;;
19089;SDS011;9677;50.656;13.064;2023-07-13T14:00:56;8.60;;;7.90;;
19089;SDS011;9677;50.656;13.064;2023-07-13T14:03:24;8.70;;;7.90;;
19089;SDS011;9677;50.656;13.064;2023-07-13T14:05:54;8.53;;;7.83;;
19089;SDS011;9677;50.656;13.064;2023-07-13T14:08:23;8.40;;;7.70;;
19089;SDS011;9677;50.656;13.064;2023-07-13T14:10:52;8.30;;;7.50;;
19089;SDS011;9677;50.656;13.064;2023-07-13T14:13:25;8.77;;;7.97;;
19089;SDS011;9677;50.656;13.064;2023-07-13T14:15:58;8.70;;;8.00;;
19089;SDS011;9677;50.656;13.064;2023-07-13T14:18:26;8.70;;;7.90;;
19089;SDS011;9677;50.656;13.064;2023-07-13T14:20:55;9.13;;;8.00;;
19089;SDS011;9677;50.656;13.064;2023-07-13T14:23:23;8.90;;;8.10;;
19089;SDS011;9677;50.656;13.064;2023-07-13T14:25:51;8.40;;;7.70;;
19089;SDS011;9677;50.656;13.064;2023-07-13T14:28:21;8.80;;;8.00;;
19089;SDS011;9677;50.656;13.064;2023-07-13T14:30:53;8.93;;;8.13;;
19089;SDS011;9677;50.656;13.064;2023-07-13T14:33:22;8.80;;;8.00;;
19089;SDS011;9677;50.656;13.064;2023-07-13T14:35:51;8.77;;;7.90;;
19089;SDS011;9677;50.656;13.064;2023-07-13T14:38:19;9.20;;;8.17;;
19089;SDS011;9677;50.656;13.064;2023-07-13T14:40:48;8.80;;;8.00;;
19089;SDS011;9677;50.656;13.064;2023-07-13T14:43:16;9.17;;;8.10;;
19089;SDS011;9677;50.656;13.064;2023-07-13T14:45:46;8.60;;;7.80;;
19089;SDS011;9677;50.656;13.064;2023-07-13T14:48:18;9.00;;;8.10;;
19089;SDS011;9677;50.656;13.064;2023-07-13T14:50:50;8.77;;;8.00;;
19089;SDS011;9677;50.656;13.064;2023-07-13T14:53:24;8.60;;;7.80;;
19089;SDS011;9677;50.656;13.064;2023-07-13T14:55:54;8.60;;;7.80;;
19089;SDS011;9677;50.656;13.064;2023-07-13T14:58:23;8.80;;;7.90;;
19089;SDS011;9677;50.656;13.064;2023-07-13T15:00:51;11.57;;;8.30;;
19089;SDS011;9677;50.656;13.064;2023-07-13T15:03:23;8.47;;;7.73;;
19089;SDS011;9677;50.656;13.064;2023-07-13T15:05:53;8.63;;;7.83;;
19089;SDS011;9677;50.656;13.064;2023-07-13T15:08:21;8.70;;;7.90;;
19089;SDS011;9677;50.656;13.064;2023-07-13T15:10:50;8.57;;;7.77;;
19089;SDS011;9677;50.656;13.064;2023-07-13T15:13:19;8.53;;;7.83;;
19089;SDS011;9677;50.656;13.064;2023-07-13T15:15:50;8.63;;;7.90;;
19089;SDS011;9677;50.656;13.064;2023-07-13T15:18:20;9.00;;;8.10;;
19089;SDS011;9677;50.656;13.064;2023-07-13T15:20:51;8.40;;;7.70;;
19089;SDS011;9677;50.656;13.064;2023-07-13T15:23:22;8.60;;;7.87;;